createdAt,value
2023-05-07T00:01:40.316Z,13.88
2023-05-07T00:04:08.844Z,13.89
2023-05-07T00:06:35.768Z,13.85
2023-05-07T00:09:02.651Z,13.77
2023-05-07T00:11:29.650Z,13.80
2023-05-07T00:13:56.446Z,13.76
2023-05-07T00:16:23.429Z,13.72
2023-05-07T00:18:50.287Z,13.72
2023-05-07T00:21:17.421Z,13.73
2023-05-07T00:23:44.155Z,13.70
2023-05-07T00:26:11.000Z,13.66
2023-05-07T00:28:37.731Z,13.59
2023-05-07T00:31:04.468Z,13.65
2023-05-07T00:33:31.249Z,13.68
2023-05-07T00:35:58.029Z,13.67
2023-05-07T00:38:24.974Z,13.66
2023-05-07T00:40:52.770Z,13.57
2023-05-07T00:43:19.667Z,13.45
2023-05-07T00:45:46.789Z,13.47
2023-05-07T00:48:15.304Z,13.42
2023-05-07T00:50:42.290Z,13.41
2023-05-07T00:53:09.162Z,13.32
2023-05-07T00:55:37.577Z,13.41
2023-05-07T00:58:04.610Z,13.23
2023-05-07T01:00:31.790Z,13.21
2023-05-07T01:02:59.175Z,13.18
2023-05-07T01:05:29.056Z,13.19
2023-05-07T01:07:57.134Z,13.16
2023-05-07T01:10:24.695Z,13.13
2023-05-07T01:12:51.768Z,13.02
2023-05-07T01:15:19.107Z,12.99
2023-05-07T01:17:46.572Z,13.09
2023-05-07T01:20:14.092Z,13.03
2023-05-07T01:22:41.470Z,13.01
2023-05-07T01:25:09.394Z,12.98
2023-05-07T01:27:38.370Z,12.94
2023-05-07T01:30:06.396Z,12.83
2023-05-07T01:32:42.067Z,12.82
2023-05-07T01:35:12.312Z,12.72
2023-05-07T01:37:41.249Z,12.78
2023-05-07T01:40:09.619Z,12.75
2023-05-07T01:42:37.504Z,12.72
2023-05-07T01:45:04.578Z,12.61
2023-05-07T01:47:31.817Z,12.57
2023-05-07T01:49:59.337Z,12.45
2023-05-07T01:52:26.400Z,12.48
2023-05-07T01:54:53.180Z,12.33
2023-05-07T01:57:20.108Z,12.35
2023-05-07T01:59:46.832Z,12.47
2023-05-07T02:02:13.652Z,12.60
2023-05-07T02:04:40.529Z,12.51
2023-05-07T02:07:07.341Z,12.33
2023-05-07T02:09:34.148Z,12.32
2023-05-07T02:12:01.067Z,12.31
2023-05-07T02:14:27.807Z,12.26
2023-05-07T02:16:54.633Z,12.42
2023-05-07T02:19:22.389Z,12.43
2023-05-07T02:21:49.424Z,12.48
2023-05-07T02:24:16.294Z,12.47
2023-05-07T02:26:43.092Z,12.46
2023-05-07T02:29:09.853Z,12.52
2023-05-07T02:31:36.681Z,12.53
2023-05-07T02:34:03.512Z,12.53
2023-05-07T02:36:30.411Z,12.51
2023-05-07T02:39:00.084Z,12.42
2023-05-07T02:41:26.893Z,12.58
2023-05-07T02:43:53.630Z,12.54
2023-05-07T02:46:20.482Z,12.55
2023-05-07T02:48:47.317Z,12.50
2023-05-07T02:51:14.065Z,12.50
2023-05-07T02:53:40.900Z,12.45
2023-05-07T02:56:08.063Z,12.49
2023-05-07T02:58:34.826Z,12.51
2023-05-07T03:01:01.831Z,12.48
2023-05-07T03:03:28.633Z,12.53
2023-05-07T03:05:55.448Z,12.51
2023-05-07T03:08:22.191Z,12.50
2023-05-07T03:10:49.161Z,12.49
2023-05-07T03:13:16.165Z,12.47
2023-05-07T03:15:42.962Z,12.52
2023-05-07T03:18:09.843Z,12.61
2023-05-07T03:20:37.732Z,12.52
2023-05-07T03:23:04.707Z,12.51
2023-05-07T03:25:31.752Z,12.52
2023-05-07T03:27:58.527Z,12.54
2023-05-07T03:30:25.417Z,12.54
2023-05-07T03:32:52.260Z,12.50
2023-05-07T03:35:19.287Z,12.49
2023-05-07T03:37:46.086Z,12.48
2023-05-07T03:40:13.853Z,12.45
2023-05-07T03:42:40.862Z,12.50
2023-05-07T03:45:08.440Z,12.48
2023-05-07T03:47:35.268Z,12.58
2023-05-07T03:50:02.310Z,12.53
2023-05-07T03:52:29.197Z,12.60
2023-05-07T03:54:56.414Z,12.58
2023-05-07T03:57:23.345Z,12.70
2023-05-07T03:59:50.139Z,12.79
2023-05-07T04:02:17.051Z,12.84
2023-05-07T04:04:43.890Z,12.85
2023-05-07T04:07:11.241Z,12.92
2023-05-07T04:09:38.057Z,12.94
2023-05-07T04:12:05.133Z,12.93
2023-05-07T04:14:33.378Z,12.96
2023-05-07T04:17:00.828Z,12.99
2023-05-07T04:19:27.609Z,13.02
2023-05-07T04:21:54.449Z,13.07
2023-05-07T04:24:21.418Z,13.10
2023-05-07T04:26:48.243Z,13.15
2023-05-07T04:29:15.014Z,13.14
2023-05-07T04:31:41.845Z,13.11
2023-05-07T04:34:08.683Z,13.07
2023-05-07T04:36:35.473Z,13.06
2023-05-07T04:39:03.934Z,12.94
2023-05-07T04:41:30.756Z,12.94
2023-05-07T04:44:00.181Z,12.95
2023-05-07T04:46:27.123Z,12.96
2023-05-07T04:48:53.987Z,13.07
2023-05-07T04:51:20.756Z,13.08
2023-05-07T04:53:47.530Z,13.23
2023-05-07T04:56:14.527Z,13.31
2023-05-07T04:58:41.692Z,13.27
2023-05-07T05:01:08.565Z,13.19
2023-05-07T05:03:35.505Z,13.28
2023-05-07T05:06:02.330Z,13.30
2023-05-07T05:08:29.101Z,13.43
2023-05-07T05:10:55.989Z,13.30
2023-05-07T05:13:22.953Z,13.31
2023-05-07T05:15:49.907Z,13.32
2023-05-07T05:18:16.697Z,13.29
2023-05-07T05:20:43.472Z,13.49
2023-05-07T05:23:10.343Z,13.70
2023-05-07T05:25:37.145Z,13.53
2023-05-07T05:28:04.059Z,13.66
2023-05-07T05:30:30.800Z,13.78
2023-05-07T05:32:57.634Z,13.70
2023-05-07T05:35:24.542Z,13.82
2023-05-07T05:37:51.456Z,13.82
2023-05-07T05:40:18.301Z,13.87
2023-05-07T05:42:45.093Z,14.21
2023-05-07T05:45:11.945Z,14.07
2023-05-07T05:47:39.111Z,13.99
2023-05-07T05:50:07.664Z,14.04
2023-05-07T05:52:34.417Z,14.09
2023-05-07T05:55:01.202Z,14.03
2023-05-07T05:57:28.724Z,14.07
2023-05-07T05:59:56.161Z,14.16
2023-05-07T06:02:23.089Z,14.22
2023-05-07T06:04:50.318Z,14.19
2023-05-07T06:07:17.040Z,14.28
2023-05-07T06:09:43.797Z,14.29
2023-05-07T06:12:10.507Z,14.21
2023-05-07T06:14:37.326Z,14.62
2023-05-07T06:17:04.306Z,14.72
2023-05-07T06:19:31.157Z,14.74
2023-05-07T06:21:57.909Z,14.81
2023-05-07T06:24:25.930Z,15.24
2023-05-07T06:26:52.706Z,15.14
2023-05-07T06:29:19.611Z,14.87
2023-05-07T06:31:46.596Z,14.90
2023-05-07T06:34:15.638Z,15.06
2023-05-07T06:36:42.577Z,14.83
2023-05-07T06:39:09.495Z,15.15
2023-05-07T06:41:36.817Z,15.31
2023-05-07T06:44:04.251Z,15.46
2023-05-07T06:46:31.242Z,15.80
2023-05-07T06:48:58.162Z,15.90
2023-05-07T06:51:25.091Z,15.68
2023-05-07T06:53:51.891Z,15.32
2023-05-07T06:56:18.606Z,15.50
2023-05-07T06:58:45.357Z,15.50
2023-05-07T07:01:12.239Z,15.32
2023-05-07T07:03:38.999Z,15.43
2023-05-07T07:06:05.916Z,16.02
2023-05-07T07:08:32.734Z,15.91
2023-05-07T07:10:59.514Z,15.66
2023-05-07T07:13:26.528Z,15.55
2023-05-07T07:15:54.560Z,15.64
2023-05-07T07:18:21.727Z,16.36
2023-05-07T07:20:48.629Z,16.73
2023-05-07T07:23:15.767Z,16.29
2023-05-07T07:25:42.674Z,16.48
2023-05-07T07:28:09.527Z,17.20
2023-05-07T07:30:36.391Z,17.11
2023-05-07T07:33:04.486Z,16.82
2023-05-07T07:35:31.582Z,17.26
2023-05-07T07:37:58.466Z,16.98
2023-05-07T07:40:26.105Z,16.80
2023-05-07T07:42:53.868Z,17.41
2023-05-07T07:45:20.920Z,17.01
2023-05-07T07:47:47.939Z,17.05
2023-05-07T07:50:21.990Z,16.97
2023-05-07T07:52:52.182Z,17.12
2023-05-07T07:55:24.118Z,17.09
2023-05-07T07:57:51.327Z,17.06
2023-05-07T08:00:18.475Z,17.20
2023-05-07T08:02:46.205Z,17.11
2023-05-07T08:05:13.145Z,17.26
2023-05-07T08:07:39.907Z,16.83
2023-05-07T08:10:07.290Z,17.36
2023-05-07T08:12:34.061Z,17.72
2023-05-07T08:15:00.825Z,17.75
2023-05-07T08:17:27.735Z,17.69
2023-05-07T08:19:54.464Z,17.92
2023-05-07T08:22:21.193Z,17.62
2023-05-07T08:24:48.001Z,17.87
2023-05-07T08:27:14.796Z,17.57
2023-05-07T08:29:41.546Z,17.61
2023-05-07T08:32:08.333Z,17.84
2023-05-07T08:34:35.062Z,17.65
2023-05-07T08:37:01.863Z,17.77
2023-05-07T08:39:31.335Z,18.28
2023-05-07T08:42:01.227Z,18.26
2023-05-07T08:44:29.681Z,18.18
2023-05-07T08:46:58.001Z,18.20
2023-05-07T08:49:24.890Z,18.20
2023-05-07T08:51:52.717Z,18.31
2023-05-07T08:54:21.148Z,18.37
2023-05-07T08:56:48.028Z,18.27
2023-05-07T08:59:15.101Z,18.94
2023-05-07T09:01:42.170Z,18.75
2023-05-07T09:04:10.670Z,18.82
2023-05-07T09:06:39.249Z,19.04
2023-05-07T09:09:06.710Z,19.03
2023-05-07T09:11:33.589Z,19.01
2023-05-07T09:14:03.982Z,19.16
2023-05-07T09:16:33.649Z,18.67
2023-05-07T09:19:01.852Z,19.22
2023-05-07T09:21:28.713Z,19.97
2023-05-07T09:23:56.675Z,19.93
2023-05-07T09:26:24.769Z,20.34
2023-05-07T09:28:52.097Z,20.53
2023-05-07T09:31:21.057Z,19.92
2023-05-07T09:33:48.332Z,20.11
2023-05-07T09:36:15.175Z,19.77
2023-05-07T09:38:42.725Z,20.66
2023-05-07T09:41:11.854Z,20.83
2023-05-07T09:43:40.794Z,19.92
2023-05-07T09:46:12.876Z,20.29
2023-05-07T09:48:41.989Z,21.05
2023-05-07T09:51:30.967Z,21.60
2023-05-07T09:53:59.064Z,20.65
2023-05-07T09:56:27.007Z,20.63
2023-05-07T09:58:55.832Z,19.88
2023-05-07T10:01:23.831Z,20.29
2023-05-07T10:03:51.980Z,21.33
2023-05-07T10:06:18.989Z,22.45
2023-05-07T10:08:46.587Z,22.09
2023-05-07T10:11:13.660Z,21.95
2023-05-07T10:13:41.423Z,22.04
2023-05-07T10:16:08.869Z,22.35
2023-05-07T10:18:36.117Z,22.33
2023-05-07T10:21:12.390Z,22.37
2023-05-07T10:23:39.920Z,22.61
2023-05-07T10:26:09.280Z,23.73
2023-05-07T10:28:40.996Z,23.13
2023-05-07T10:31:38.445Z,22.75
2023-05-07T10:34:11.405Z,23.08
2023-05-07T10:36:38.737Z,22.60
2023-05-07T10:39:07.427Z,23.34
2023-05-07T10:41:34.342Z,23.42
2023-05-07T10:44:03.461Z,24.15
2023-05-07T10:46:30.624Z,22.69
2023-05-07T10:49:07.537Z,22.39
2023-05-07T10:51:34.560Z,21.91
2023-05-07T10:54:16.875Z,22.60
2023-05-07T10:56:44.520Z,22.87
2023-05-07T10:59:31.815Z,23.62
2023-05-07T11:02:00.495Z,24.07
2023-05-07T11:04:28.843Z,23.29
2023-05-07T11:07:08.005Z,23.47
2023-05-07T11:09:53.198Z,24.61
2023-05-07T11:12:42.235Z,23.43
2023-05-07T11:15:13.290Z,23.50
2023-05-07T11:17:57.792Z,22.55
2023-05-07T11:20:48.418Z,23.11
2023-05-07T11:23:36.810Z,22.85
2023-05-07T11:26:05.284Z,23.86
2023-05-07T11:28:37.405Z,23.10
2023-05-07T11:31:04.874Z,22.96
2023-05-07T11:33:32.090Z,24.38
2023-05-07T11:35:59.566Z,24.09
2023-05-07T11:38:26.966Z,24.05
2023-05-07T11:40:55.350Z,24.81
2023-05-07T11:43:22.192Z,25.75
2023-05-07T11:45:50.116Z,24.46
2023-05-07T11:48:17.918Z,24.67
2023-05-07T11:50:59.757Z,25.18
2023-05-07T11:53:28.068Z,24.85
2023-05-07T11:55:56.835Z,25.05
2023-05-07T11:58:25.370Z,24.64
2023-05-07T12:00:53.482Z,25.86
2023-05-07T12:03:21.239Z,24.54
2023-05-07T12:05:49.140Z,25.74
2023-05-07T12:08:20.388Z,25.44
2023-05-07T12:10:50.264Z,25.55
2023-05-07T12:13:22.327Z,26.16
2023-05-07T12:15:56.427Z,26.26
2023-05-07T12:18:24.395Z,27.16
2023-05-07T12:20:51.814Z,26.03
2023-05-07T12:23:19.061Z,25.46
2023-05-07T12:25:49.137Z,26.78
2023-05-07T12:28:17.691Z,26.93
2023-05-07T12:30:49.664Z,26.65
2023-05-07T12:33:20.462Z,26.20
2023-05-07T12:35:49.254Z,26.38
2023-05-07T12:38:19.062Z,26.53
2023-05-07T12:40:48.680Z,26.49
2023-05-07T12:43:25.383Z,26.91
2023-05-07T12:45:55.372Z,26.33
2023-05-07T12:48:22.917Z,26.90
2023-05-07T12:50:56.727Z,26.27
2023-05-07T12:53:26.080Z,26.41
2023-05-07T12:55:55.152Z,26.13
2023-05-07T12:58:26.556Z,26.69
2023-05-07T13:00:54.000Z,26.05
2023-05-07T13:03:29.242Z,26.08
2023-05-07T13:05:59.240Z,26.57
2023-05-07T13:08:28.164Z,27.22
2023-05-07T13:10:55.321Z,27.57
2023-05-07T13:13:22.816Z,27.16
2023-05-07T13:15:49.758Z,27.05
2023-05-07T13:18:16.766Z,25.69
2023-05-07T13:20:43.734Z,25.46
2023-05-07T13:23:10.516Z,25.56
2023-05-07T13:25:39.069Z,25.43
2023-05-07T13:28:10.752Z,25.32
2023-05-07T13:30:38.341Z,25.92
2023-05-07T13:33:05.355Z,25.70
2023-05-07T13:35:32.278Z,25.09
2023-05-07T13:37:59.107Z,25.05
2023-05-07T13:40:26.230Z,26.14
2023-05-07T13:42:53.143Z,25.84
2023-05-07T13:45:20.250Z,25.42
2023-05-07T13:47:48.013Z,26.42
2023-05-07T13:50:14.903Z,26.35
2023-05-07T13:52:46.976Z,26.42
2023-05-07T13:55:14.188Z,26.92
2023-05-07T13:57:41.284Z,27.18
2023-05-07T14:00:08.812Z,26.24
2023-05-07T14:02:35.751Z,26.65
2023-05-07T14:05:02.678Z,27.13
2023-05-07T14:07:29.610Z,28.12
2023-05-07T14:09:58.641Z,27.40
2023-05-07T14:12:26.019Z,28.01
2023-05-07T14:14:53.278Z,28.09
2023-05-07T14:17:21.362Z,27.75
2023-05-07T14:19:48.295Z,27.28
2023-05-07T14:22:16.760Z,27.58
2023-05-07T14:24:45.241Z,27.02
2023-05-07T14:27:13.568Z,27.14
2023-05-07T14:29:41.224Z,27.42
2023-05-07T14:32:08.103Z,27.56
2023-05-07T14:34:34.988Z,26.83
2023-05-07T14:37:01.886Z,27.46
2023-05-07T14:39:28.722Z,27.68
2023-05-07T14:41:57.391Z,27.23
2023-05-07T14:44:24.401Z,27.19
2023-05-07T14:46:51.992Z,26.62
2023-05-07T14:49:18.832Z,26.93
2023-05-07T14:51:46.627Z,26.29
2023-05-07T14:54:14.343Z,25.44
2023-05-07T14:56:41.839Z,25.23
2023-05-07T14:59:09.601Z,24.43
2023-05-07T15:01:37.658Z,24.59
2023-05-07T15:04:05.954Z,24.35
2023-05-07T15:06:33.623Z,24.09
2023-05-07T15:09:00.576Z,23.90
2023-05-07T15:11:28.220Z,23.74
2023-05-07T15:13:56.338Z,23.91
2023-05-07T15:16:23.308Z,23.65
2023-05-07T15:18:50.371Z,23.54
2023-05-07T15:21:17.294Z,23.62
2023-05-07T15:23:45.659Z,23.07
2023-05-07T15:26:12.537Z,23.17
2023-05-07T15:28:40.729Z,22.82
2023-05-07T15:31:08.266Z,22.74
2023-05-07T15:33:35.265Z,22.75
2023-05-07T15:36:02.942Z,22.82
2023-05-07T15:38:30.358Z,22.98
2023-05-07T15:40:57.251Z,23.01
2023-05-07T15:43:24.214Z,22.61
2023-05-07T15:45:51.320Z,22.90
2023-05-07T15:48:18.196Z,22.47
2023-05-07T15:50:45.061Z,22.50
2023-05-07T15:53:13.964Z,22.56
2023-05-07T15:55:43.233Z,22.41
2023-05-07T15:58:10.238Z,22.39
2023-05-07T16:00:40.964Z,22.40
2023-05-07T16:03:09.363Z,22.11
2023-05-07T16:05:36.352Z,21.96
2023-05-07T16:08:04.423Z,21.96
2023-05-07T16:10:31.652Z,21.99
2023-05-07T16:12:58.903Z,22.15
2023-05-07T16:15:25.900Z,22.07
2023-05-07T16:17:58.302Z,21.85
2023-05-07T16:20:32.405Z,21.92
2023-05-07T16:22:59.356Z,21.76
2023-05-07T16:25:26.957Z,21.83
2023-05-07T16:27:55.006Z,21.76
2023-05-07T16:30:21.856Z,21.59
2023-05-07T16:32:48.681Z,21.56
2023-05-07T16:35:15.601Z,21.57
2023-05-07T16:37:46.065Z,21.58
2023-05-07T16:40:13.544Z,21.56
2023-05-07T16:42:40.344Z,21.53
2023-05-07T16:45:07.577Z,21.58
2023-05-07T16:47:34.639Z,21.51
2023-05-07T16:50:01.558Z,21.49
2023-05-07T16:52:30.386Z,21.40
2023-05-07T16:55:01.114Z,21.35
2023-05-07T16:57:31.025Z,21.34
2023-05-07T16:59:59.257Z,21.27
2023-05-07T17:02:26.178Z,21.24
2023-05-07T17:04:53.216Z,21.27
2023-05-07T17:07:19.980Z,21.23
2023-05-07T17:09:46.774Z,21.15
2023-05-07T17:12:13.802Z,21.17
2023-05-07T17:14:40.620Z,21.16
2023-05-07T17:17:07.345Z,21.14
2023-05-07T17:19:39.730Z,21.12
2023-05-07T17:22:06.889Z,21.08
2023-05-07T17:24:33.628Z,21.14
2023-05-07T17:27:00.779Z,21.08
2023-05-07T17:29:27.798Z,21.05
2023-05-07T17:31:54.583Z,21.05
2023-05-07T17:34:21.409Z,21.04
2023-05-07T17:36:48.202Z,21.03
2023-05-07T17:39:14.989Z,20.90
2023-05-07T17:41:41.736Z,20.73
2023-05-07T17:44:08.501Z,20.63
2023-05-07T17:46:35.328Z,20.59
2023-05-07T17:49:02.247Z,20.44
2023-05-07T17:51:36.089Z,20.30
2023-05-07T17:54:09.372Z,20.28
2023-05-07T17:56:38.069Z,20.20
2023-05-07T17:59:05.296Z,20.14
2023-05-07T18:01:34.300Z,20.11
2023-05-07T18:04:02.895Z,20.12
2023-05-07T18:06:29.893Z,19.98
2023-05-07T18:08:57.089Z,19.87
2023-05-07T18:11:24.635Z,19.87
2023-05-07T18:13:51.549Z,19.44
2023-05-07T18:16:19.529Z,19.03
2023-05-07T18:18:47.106Z,18.75
2023-05-07T18:21:19.133Z,18.76
2023-05-07T18:23:46.882Z,18.74
2023-05-07T18:26:13.862Z,18.88
2023-05-07T18:28:41.400Z,18.70
2023-05-07T18:31:08.358Z,18.82
2023-05-07T18:33:35.107Z,18.78
2023-05-07T18:36:02.016Z,18.81
2023-05-07T18:38:28.916Z,18.66
2023-05-07T18:41:05.817Z,18.80
2023-05-07T18:43:34.189Z,18.62
2023-05-07T18:46:01.353Z,18.67
2023-05-07T18:48:28.387Z,18.74
2023-05-07T18:50:55.256Z,18.75
2023-05-07T18:53:22.168Z,18.71
2023-05-07T18:55:52.826Z,18.73
2023-05-07T18:58:20.474Z,18.74
2023-05-07T19:00:48.709Z,18.73
2023-05-07T19:03:16.324Z,18.67
2023-05-07T19:05:43.875Z,18.62
2023-05-07T19:08:10.972Z,18.62
2023-05-07T19:10:38.245Z,18.57
2023-05-07T19:13:05.508Z,18.56
2023-05-07T19:15:32.403Z,18.47
2023-05-07T19:17:59.256Z,18.41
2023-05-07T19:20:26.348Z,18.34
2023-05-07T19:22:53.162Z,18.39
2023-05-07T19:25:20.277Z,18.38
2023-05-07T19:27:48.254Z,18.33
2023-05-07T19:30:15.648Z,18.23
2023-05-07T19:32:42.451Z,18.16
2023-05-07T19:35:09.756Z,18.15
2023-05-07T19:37:36.508Z,18.10
2023-05-07T19:40:05.459Z,18.10
2023-05-07T19:42:32.976Z,18.00
2023-05-07T19:44:59.820Z,17.96
2023-05-07T19:47:26.990Z,17.98
2023-05-07T19:49:53.973Z,17.87
2023-05-07T19:52:20.812Z,17.76
2023-05-07T19:54:47.712Z,17.72
2023-05-07T19:57:15.840Z,17.63
2023-05-07T19:59:42.638Z,17.60
2023-05-07T20:02:09.511Z,17.57
2023-05-07T20:04:38.353Z,17.42
2023-05-07T20:07:06.032Z,17.50
2023-05-07T20:09:32.816Z,17.41
2023-05-07T20:11:59.666Z,17.25
2023-05-07T20:14:29.538Z,17.29
2023-05-07T20:16:56.355Z,17.26
2023-05-07T20:19:23.181Z,17.24
2023-05-07T20:21:49.991Z,17.11
2023-05-07T20:24:19.117Z,17.13
2023-05-07T20:26:46.597Z,17.13
2023-05-07T20:29:13.435Z,16.96
2023-05-07T20:31:40.809Z,16.84
2023-05-07T20:34:07.814Z,16.83
2023-05-07T20:36:34.854Z,16.80
2023-05-07T20:39:01.604Z,16.79
2023-05-07T20:41:28.512Z,16.71
2023-05-07T20:43:55.274Z,16.71
2023-05-07T20:46:23.140Z,16.62
2023-05-07T20:48:50.296Z,16.60
2023-05-07T20:51:17.373Z,16.54
2023-05-07T20:53:46.121Z,16.46
2023-05-07T20:56:14.469Z,16.46
2023-05-07T20:58:41.223Z,16.37
2023-05-07T21:01:08.138Z,16.36
2023-05-07T21:03:35.080Z,16.31
2023-05-07T21:06:02.072Z,16.20
2023-05-07T21:08:28.851Z,16.17
2023-05-07T21:10:56.477Z,16.13
2023-05-07T21:13:23.818Z,16.18
2023-05-07T21:15:50.911Z,16.18
2023-05-07T21:18:19.159Z,16.11
2023-05-07T21:20:45.965Z,16.01
2023-05-07T21:23:12.778Z,16.04
2023-05-07T21:25:41.692Z,16.03
2023-05-07T21:28:09.615Z,15.97
2023-05-07T21:30:37.216Z,15.84
2023-05-07T21:33:06.281Z,15.83
2023-05-07T21:35:36.177Z,15.76
2023-05-07T21:38:03.461Z,15.74
2023-05-07T21:40:30.710Z,15.73
2023-05-07T21:43:00.400Z,15.65
2023-05-07T21:45:27.256Z,15.53
2023-05-07T21:47:54.117Z,15.49
2023-05-07T21:50:21.494Z,15.55
2023-05-07T21:52:49.561Z,15.53
2023-05-07T21:55:18.121Z,15.41
2023-05-07T21:57:53.795Z,15.35
2023-05-07T22:00:24.706Z,15.34
2023-05-07T22:02:51.589Z,15.31
2023-05-07T22:05:18.480Z,15.28
2023-05-07T22:07:45.238Z,15.22
2023-05-07T22:10:12.133Z,15.17
2023-05-07T22:12:39.108Z,15.19
2023-05-07T22:15:07.046Z,15.15
2023-05-07T22:17:33.822Z,15.10
2023-05-07T22:20:00.635Z,15.19
2023-05-07T22:22:27.388Z,15.16
2023-05-07T22:24:54.161Z,15.03
2023-05-07T22:27:21.098Z,15.06
2023-05-07T22:29:48.200Z,15.08
2023-05-07T22:32:15.159Z,15.05
2023-05-07T22:34:42.064Z,14.96
2023-05-07T22:37:08.989Z,15.00
2023-05-07T22:39:35.894Z,14.94
2023-05-07T22:42:02.766Z,14.81
2023-05-07T22:44:29.761Z,14.81
2023-05-07T22:46:56.608Z,14.69
2023-05-07T22:49:23.534Z,14.66
2023-05-07T22:51:50.341Z,14.61
2023-05-07T22:54:17.093Z,14.65
2023-05-07T22:56:44.220Z,14.65
2023-05-07T22:59:11.087Z,14.63
2023-05-07T23:01:37.924Z,14.51
2023-05-07T23:04:04.988Z,14.51
2023-05-07T23:06:31.769Z,14.55
2023-05-07T23:08:59.165Z,14.43
2023-05-07T23:11:26.611Z,14.48
2023-05-07T23:13:53.392Z,14.39
2023-05-07T23:16:20.242Z,14.31
2023-05-07T23:18:47.147Z,14.33
2023-05-07T23:21:13.966Z,14.30
2023-05-07T23:23:40.691Z,14.42
2023-05-07T23:26:07.461Z,14.33
2023-05-07T23:28:34.458Z,14.31
2023-05-07T23:31:01.229Z,14.23
2023-05-07T23:33:28.023Z,14.09
2023-05-07T23:36:02.324Z,14.14
2023-05-07T23:38:29.260Z,14.15
2023-05-07T23:40:56.466Z,14.08
2023-05-07T23:43:23.661Z,13.98
2023-05-07T23:45:51.055Z,13.83
2023-05-07T23:48:17.850Z,13.96
2023-05-07T23:50:44.826Z,13.93
2023-05-07T23:53:11.623Z,13.89
2023-05-07T23:55:38.527Z,13.91
2023-05-07T23:58:05.310Z,13.89
